Time;durP1;ratioP1;P1;durP2;ratioP2;P2;SDS_P1;SDS_P2;PMS_P1;PMS_P2;Temp;Humidity;BMP_temperature;BMP_pressure;BME280_temperature;BME280_humidity;BME280_pressure;Samples;Min_cycle;Max_cycle;Signal;HPM_P1;HPM_P2
2023/06/06 00:00:34;;;;;;;5.93;5.22;;;;;;;19.22;75.54;99824.38;5051641;28;20453;-76
2023/06/06 00:03:00;;;;;;;6.47;5.53;;;;;;;19.20;76.03;99822.66;5052008;28;20033;-76
2023/06/06 00:05:27;;;;;;;9.02;6.22;;;;;;;19.37;76.86;99852.16;5050470;28;20025;-76
2023/06/06 00:07:53;;;;;;;6.15;5.45;;;;;;;19.10;76.91;99816.44;5051837;28;20495;-76
2023/06/06 00:10:18;;;;;;;6.75;5.63;;;;;;;19.29;77.60;99852.78;5051801;28;20044;-76
2023/06/06 00:12:46;;;;;;;6.60;5.75;;;;;;;19.28;77.62;99843.19;5051539;28;20036;-76
2023/06/06 00:15:13;;;;;;;6.32;5.53;;;;;;;19.21;78.07;99841.97;5051506;28;20025;-76
2023/06/06 00:17:44;;;;;;;7.47;5.75;;;;;;;19.10;79.31;99832.28;5051547;28;20029;-76
2023/06/06 00:20:11;;;;;;;5.93;5.32;;;;;;;19.18;79.67;99851.00;5055226;28;20084;-76
2023/06/06 00:22:37;;;;;;;8.25;6.13;;;;;;;18.83;79.22;99800.97;5055132;28;20017;-76
2023/06/06 00:25:04;;;;;;;7.53;5.82;;;;;;;18.97;79.43;99820.19;5055193;28;20029;-76
2023/06/06 00:27:30;;;;;;;6.20;5.60;;;;;;;19.11;79.55;99852.44;5054885;28;20484;-76
2023/06/06 00:29:56;;;;;;;7.90;6.32;;;;;;;19.10;80.41;99860.50;5054896;28;20040;-77
2023/06/06 00:32:21;;;;;;;7.32;5.93;;;;;;;19.07;81.07;99864.19;5054673;28;20369;-76
2023/06/06 00:34:46;;;;;;;8.85;5.82;;;;;;;18.94;81.54;99861.69;5055119;28;20123;-76
2023/06/06 00:37:12;;;;;;;6.57;5.88;;;;;;;18.98;81.53;99867.56;5055336;28;20029;-76
2023/06/06 00:39:37;;;;;;;7.45;6.35;;;;;;;18.99;81.01;99879.78;5054577;28;20029;-76
2023/06/06 00:42:03;;;;;;;8.00;6.28;;;;;;;18.73;81.05;99859.88;5054796;28;20028;-76
2023/06/06 00:44:28;;;;;;;7.47;6.45;;;;;;;18.84;82.25;99883.66;5054600;28;20036;-76
2023/06/06 00:46:53;;;;;;;8.73;6.60;;;;;;;18.62;84.92;99873.84;5054976;28;20024;-76
2023/06/06 00:49:19;;;;;;;7.30;6.43;;;;;;;18.65;85.96;99879.72;5055023;28;20029;-76
2023/06/06 00:51:45;;;;;;;9.43;7.28;;;;;;;18.44;88.05;99866.38;5054514;28;20029;-76
2023/06/06 00:54:13;;;;;;;7.82;7.03;;;;;;;18.54;89.11;99898.19;5054585;28;20435;-76
2023/06/06 00:56:41;;;;;;;9.48;7.07;;;;;;;18.52;89.75;99901.88;5054165;28;20461;-76
2023/06/06 00:59:06;;;;;;;6.88;6.18;;;;;;;18.37;90.23;99875.72;5054459;28;20037;-76
2023/06/06 01:01:34;;;;;;;9.25;7.22;;;;;;;18.47;90.59;99894.31;5054150;28;20051;-76
2023/06/06 01:04:07;;;;;;;7.82;6.53;;;;;;;18.46;91.05;99892.66;5054504;28;20061;-76
2023/06/06 01:06:34;;;;;;;7.25;6.53;;;;;;;18.35;91.58;99863.59;5054226;28;20032;-76
2023/06/06 01:09:04;;;;;;;8.05;6.97;;;;;;;18.40;92.38;99887.81;5054230;28;20361;-76
2023/06/06 01:11:39;;;;;;;8.90;7.28;;;;;;;18.43;92.25;99903.41;5053973;28;20112;-76
2023/06/06 01:14:11;;;;;;;7.28;6.57;;;;;;;18.28;92.30;99884.31;5054333;28;20035;-76
2023/06/06 01:16:39;;;;;;;7.65;6.65;;;;;;;18.31;92.03;99878.81;5053871;28;20104;-76
2023/06/06 01:19:11;;;;;;;9.68;7.22;;;;;;;18.28;93.61;99883.47;5054082;28;20025;-76
2023/06/06 01:21:44;;;;;;;7.22;6.50;;;;;;;18.35;93.93;99893.44;5053757;28;20469;-76
2023/06/06 01:24:10;;;;;;;6.72;6.03;;;;;;;18.33;94.35;99894.50;5053816;28;20618;-76
2023/06/06 01:26:35;;;;;;;8.13;7.32;;;;;;;18.25;94.04;99881.09;5053838;28;20055;-76
2023/06/06 01:29:01;;;;;;;9.32;7.20;;;;;;;18.11;94.52;99859.19;5053927;28;20033;-76
2023/06/06 01:31:36;;;;;;;7.85;7.05;;;;;;;18.25;94.15;99883.72;5052886;28;20047;-76
2023/06/06 01:34:08;;;;;;;8.32;6.82;;;;;;;18.23;94.02;99870.63;5053986;28;20045;-76
2023/06/06 01:36:45;;;;;;;7.97;7.13;;;;;;;18.08;94.50;99854.19;5053023;28;20476;-76
2023/06/06 01:39:17;;;;;;;9.02;7.28;;;;;;;18.07;95.24;99854.28;5053815;28;20485;-76
2023/06/06 01:41:45;;;;;;;8.35;7.07;;;;;;;18.10;95.74;99860.16;5053518;28;20028;-76
2023/06/06 01:44:12;;;;;;;7.90;7.15;;;;;;;18.08;96.73;99862.09;5053573;28;20032;-76
2023/06/06 01:46:39;;;;;;;8.32;7.07;;;;;;;18.19;96.52;99883.19;5053190;28;20388;-76
2023/06/06 01:49:06;;;;;;;10.82;7.13;;;;;;;18.00;96.75;99853.91;5053305;28;20107;-76
2023/06/06 01:51:32;;;;;;;8.50;7.32;;;;;;;18.01;96.63;99855.59;5053439;28;20108;-76
2023/06/06 01:53:58;;;;;;;10.98;7.60;;;;;;;18.05;96.82;99861.47;5053656;28;20066;-76
2023/06/06 01:56:25;;;;;;;8.52;7.63;;;;;;;17.99;96.63;99854.00;5053552;28;20029;-76
2023/06/06 01:58:52;;;;;;;6.82;6.13;;;;;;;18.12;96.58;99878.53;5053458;28;20614;-76
2023/06/06 02:01:17;;;;;;;8.50;6.90;;;;;;;18.16;96.50;99883.44;5053349;28;20025;-76
2023/06/06 02:03:42;;;;;;;7.72;6.75;;;;;;;18.03;96.47;99861.56;5053333;28;20043;-76
2023/06/06 02:06:08;;;;;;;7.57;6.88;;;;;;;17.97;96.62;99843.59;5053643;28;20025;-76
2023/06/06 02:08:33;;;;;;;7.63;6.88;;;;;;;18.11;97.01;99882.91;5052975;28;20040;-76
2023/06/06 02:10:59;;;;;;;7.25;6.65;;;;;;;18.05;96.92;99874.66;5053051;28;20025;-76
2023/06/06 02:13:25;;;;;;;8.82;6.50;;;;;;;17.94;96.76;99859.63;5051665;28;20116;-76
2023/06/06 02:15:50;;;;;;;6.70;6.00;;;;;;;17.88;96.61;99839.00;5052729;28;20028;-76
2023/06/06 02:18:16;;;;;;;7.15;6.43;;;;;;;18.05;96.81;99883.38;5052921;28;20111;-76
2023/06/06 02:20:41;;;;;;;8.50;6.45;;;;;;;17.99;95.93;99861.91;5052828;28;20028;-76
2023/06/06 02:23:07;;;;;;;7.60;6.90;;;;;;;18.00;97.42;99872.34;5052994;28;20051;-76
2023/06/06 02:25:33;;;;;;;8.00;6.97;;;;;;;17.94;97.57;99873.63;5052490;28;20024;-76
2023/06/06 02:27:58;;;;;;;6.32;5.72;;;;;;;17.86;97.05;99852.25;5052706;28;20542;-76
2023/06/06 02:30:24;;;;;;;9.38;7.45;;;;;;;17.88;97.41;99860.09;5052695;28;20024;-76
2023/06/06 02:32:50;;;;;;;6.80;5.93;;;;;;;17.96;96.70;99868.25;5052218;28;20067;-76
2023/06/06 02:35:18;;;;;;;7.90;7.13;;;;;;;17.76;97.29;99853.06;5052943;28;20021;-76
2023/06/06 02:37:44;;;;;;;7.57;6.75;;;;;;;17.86;97.85;99875.97;5051131;28;20564;-76
2023/06/06 02:40:11;;;;;;;7.40;6.60;;;;;;;17.82;98.26;99877.16;5052490;28;20075;-76
2023/06/06 02:42:38;;;;;;;6.55;5.93;;;;;;;17.78;97.45;99872.22;5051959;28;20025;-76
2023/06/06 02:45:07;;;;;;;7.65;6.30;;;;;;;17.80;96.87;99865.91;5052424;28;20024;-76
2023/06/06 02:47:33;;;;;;;6.93;6.15;;;;;;;17.80;96.51;99878.25;5052490;28;20495;-76
2023/06/06 02:49:58;;;;;;;7.53;5.95;;;;;;;17.81;97.12;99878.13;5052714;28;20116;-76
2023/06/06 02:52:24;;;;;;;6.38;5.78;;;;;;;17.80;97.55;99876.44;5052520;28;20028;-76
2023/06/06 02:54:50;;;;;;;6.13;5.38;;;;;;;17.71;97.12;99864.75;5052146;28;20107;-77
2023/06/06 02:57:15;;;;;;;9.10;6.35;;;;;;;17.61;97.58;99842.69;5052039;28;20082;-76
2023/06/06 02:59:41;;;;;;;6.07;5.20;;;;;;;17.58;97.76;99837.63;5051868;28;20476;-76
2023/06/06 03:02:07;;;;;;;6.97;6.28;;;;;;;17.71;99.09;99875.28;5052428;28;20028;-76
2023/06/06 03:04:33;;;;;;;7.32;6.30;;;;;;;17.74;98.81;99866.38;5052085;28;20025;-76
2023/06/06 03:07:00;;;;;;;6.40;5.78;;;;;;;17.72;98.97;99868.22;5052064;28;20033;-76
2023/06/06 03:09:27;;;;;;;6.45;5.72;;;;;;;17.70;98.84;99864.88;5051988;28;20036;-76
2023/06/06 03:11:52;;;;;;;7.38;5.80;;;;;;;17.75;98.37;99875.09;5051969;28;20041;-76
2023/06/06 03:14:18;;;;;;;7.15;5.90;;;;;;;17.66;99.10;99855.50;5051777;28;20054;-76
2023/06/06 03:16:43;;;;;;;6.68;5.68;;;;;;;17.60;99.33;99855.94;5050549;28;20066;-76
2023/06/06 03:19:10;;;;;;;6.80;6.10;;;;;;;17.70;99.40;99862.25;5052122;28;20134;-76
2023/06/06 03:21:36;;;;;;;7.20;5.35;;;;;;;17.70;98.80;99875.41;5051742;28;20029;-76
2023/06/06 03:24:02;;;;;;;7.30;6.28;;;;;;;17.44;99.23;99836.00;5051845;28;20029;-76
2023/06/06 03:26:28;;;;;;;6.60;5.90;;;;;;;17.54;99.63;99867.78;5051694;28;20107;-76
2023/06/06 03:28:56;;;;;;;6.93;6.15;;;;;;;17.54;99.69;99851.13;5051489;28;20065;-76
2023/06/06 03:31:23;;;;;;;8.95;6.30;;;;;;;17.58;99.38;99855.22;5051915;28;20591;-76
2023/06/06 03:33:52;;;;;;;6.85;6.15;;;;;;;17.56;99.19;99847.41;5051396;28;20048;-76
2023/06/06 03:36:17;;;;;;;7.32;6.63;;;;;;;17.37;100.00;99826.84;5051617;28;20508;-76
2023/06/06 03:38:43;;;;;;;7.15;6.45;;;;;;;17.36;100.00;99826.94;5051343;28;20037;-76
2023/06/06 03:41:08;;;;;;;8.23;7.20;;;;;;;17.15;100.00;99798.59;5051252;28;20021;-76
2023/06/06 03:43:35;;;;;;;7.68;6.78;;;;;;;17.38;100.00;99828.53;5051310;28;20465;-76
2023/06/06 03:46:00;;;;;;;7.03;6.28;;;;;;;17.45;100.00;99837.66;5051641;28;20117;-76
2023/06/06 03:48:26;;;;;;;8.38;6.53;;;;;;;17.27;100.00;99815.28;5051660;28;20190;-76
2023/06/06 03:50:51;;;;;;;8.20;6.47;;;;;;;17.40;100.00;99823.13;5051390;28;20486;-76
2023/06/06 03:53:16;;;;;;;8.52;6.80;;;;;;;17.35;100.00;99814.75;5052239;28;20058;-76
2023/06/06 03:55:44;;;;;;;8.18;7.32;;;;;;;17.26;100.00;99805.72;5055315;28;20029;-76
2023/06/06 03:58:15;;;;;;;9.65;6.88;;;;;;;17.33;100.00;99833.28;5055143;28;20079;-76
2023/06/06 04:00:43;;;;;;;7.20;6.50;;;;;;;17.32;100.00;99826.34;5055283;28;20025;-76
2023/06/06 04:03:08;;;;;;;7.72;7.03;;;;;;;17.17;100.00;99803.75;5055227;28;20389;-76
2023/06/06 04:05:34;;;;;;;10.38;7.47;;;;;;;17.29;100.00;99823.94;5055123;28;20029;-76
2023/06/06 04:08:00;;;;;;;8.93;7.20;;;;;;;17.39;100.00;99832.84;5055524;28;20043;-76
2023/06/06 04:10:25;;;;;;;7.22;6.40;;;;;;;17.29;100.00;99813.41;5055161;28;20025;-76
2023/06/06 04:12:51;;;;;;;6.65;6.00;;;;;;;17.33;100.00;99817.50;5054802;28;20392;-76
2023/06/06 04:15:17;;;;;;;7.82;6.97;;;;;;;17.49;100.00;99832.16;5055211;28;20469;-76
2023/06/06 04:17:42;;;;;;;8.25;7.35;;;;;;;17.50;100.00;99825.97;5054696;28;20075;-76
2023/06/06 04:20:08;;;;;;;8.68;7.88;;;;;;;17.47;100.00;99832.28;5055044;28;20412;-76
2023/06/06 04:22:34;;;;;;;9.30;8.43;;;;;;;17.53;100.00;99841.53;5055204;28;20461;-76
2023/06/06 04:25:00;;;;;;;8.77;7.85;;;;;;;17.49;100.00;99833.03;5054706;28;20021;-76
2023/06/06 04:27:25;;;;;;;9.88;7.80;;;;;;;17.53;100.00;99844.16;5054789;28;20025;-76
2023/06/06 04:29:52;;;;;;;8.63;7.85;;;;;;;17.41;100.00;99816.94;5054902;28;20024;-76
2023/06/06 04:32:21;;;;;;;8.57;7.57;;;;;;;17.41;100.00;99825.69;5054733;28;20033;-76
2023/06/06 04:34:46;;;;;;;8.02;7.28;;;;;;;17.45;100.00;99827.13;5054149;28;20107;-76
2023/06/06 04:37:14;;;;;;;8.48;7.00;;;;;;;17.41;100.00;99833.56;5054746;28;20064;-76
2023/06/06 04:39:40;;;;;;;7.60;6.80;;;;;;;17.51;100.00;99849.53;5054241;28;20397;-76
2023/06/06 04:42:07;;;;;;;9.15;7.30;;;;;;;17.40;100.00;99825.78;5054691;28;20025;-76
2023/06/06 04:44:41;;;;;;;8.82;7.93;;;;;;;17.32;100.00;99826.34;5054635;28;20434;-76
2023/06/06 04:47:08;;;;;;;8.60;7.43;;;;;;;17.24;100.00;99814.69;5054589;28;20376;-76
2023/06/06 04:49:35;;;;;;;8.65;7.85;;;;;;;17.40;100.00;99839.81;5054457;28;20033;-76
2023/06/06 04:52:05;;;;;;;9.07;8.18;;;;;;;17.37;100.00;99847.91;5054387;28;20384;-76
2023/06/06 04:54:34;;;;;;;8.80;7.93;;;;;;;17.19;100.00;99823.75;5054325;28;20048;-76
2023/06/06 04:57:03;;;;;;;9.73;8.43;;;;;;;17.34;100.00;99856.03;5053851;28;20377;-76
2023/06/06 04:59:28;;;;;;;10.43;9.32;;;;;;;17.12;100.00;99832.19;5054437;28;20110;-76
2023/06/06 05:01:57;;;;;;;10.48;9.48;;;;;;;17.27;100.00;99852.13;5054043;28;20163;-76
2023/06/06 05:04:23;;;;;;;10.05;9.05;;;;;;;17.10;100.00;99847.22;5054161;28;20178;-76
2023/06/06 05:06:48;;;;;;;10.20;9.15;;;;;;;17.16;100.00;99857.34;5053806;28;20143;-76
2023/06/06 05:09:14;;;;;;;10.73;9.20;;;;;;;16.90;100.00;99833.69;5054217;28;20110;-76
2023/06/06 05:11:45;;;;;;;11.75;9.93;;;;;;;17.08;100.00;99863.13;5054165;28;20110;-76
2023/06/06 05:14:10;;;;;;;12.15;9.57;;;;;;;17.21;100.00;99871.00;5054213;28;20033;-76
2023/06/06 05:16:36;;;;;;;11.77;10.32;;;;;;;17.16;100.00;99860.81;5053778;28;20108;-76
2023/06/06 05:19:02;;;;;;;14.18;10.38;;;;;;;17.07;100.00;99837.78;5053671;28;20029;-76
2023/06/06 05:21:27;;;;;;;10.85;9.73;;;;;;;17.06;100.00;99851.84;5053766;28;20029;-76
2023/06/06 05:23:54;;;;;;;10.90;9.63;;;;;;;16.91;100.00;99826.63;5053702;28;20029;-76
2023/06/06 05:26:20;;;;;;;12.73;9.35;;;;;;;17.03;100.00;99852.09;5053881;28;20021;-76
2023/06/06 05:28:45;;;;;;;11.00;10.00;;;;;;;16.94;100.00;99853.59;5053536;28;20491;-76
2023/06/06 05:31:12;;;;;;;13.35;10.20;;;;;;;16.92;100.00;99857.25;5053636;28;20036;-76
2023/06/06 05:33:42;;;;;;;10.98;9.13;;;;;;;16.93;100.00;99858.94;5053692;28;20041;-76
2023/06/06 05:36:07;;;;;;;12.18;9.40;;;;;;;16.84;100.00;99849.06;5053461;28;20032;-76
2023/06/06 05:38:33;;;;;;;13.45;9.98;;;;;;;16.86;100.00;99849.81;5053358;28;20025;-76
2023/06/06 05:40:58;;;;;;;12.68;9.85;;;;;;;17.05;100.00;99876.50;5053396;28;20024;-76
2023/06/06 05:43:24;;;;;;;12.45;10.52;;;;;;;17.11;100.00;99872.63;5053582;28;20040;-76
2023/06/06 05:45:50;;;;;;;11.18;9.00;;;;;;;17.06;100.00;99865.00;5053318;28;20083;-76
2023/06/06 05:48:15;;;;;;;11.95;9.43;;;;;;;17.12;100.00;99880.41;5053365;28;20389;-76
2023/06/06 05:50:41;;;;;;;9.90;8.90;;;;;;;17.12;100.00;99877.75;5053509;28;20040;-76
2023/06/06 05:53:06;;;;;;;10.15;9.15;;;;;;;17.03;100.00;99877.56;5053382;28;20025;-76
2023/06/06 05:55:35;;;;;;;11.50;10.30;;;;;;;17.18;100.00;99914.16;5053333;28;20028;-76
2023/06/06 05:58:02;;;;;;;10.73;9.63;;;;;;;16.96;100.00;99874.50;5052840;28;20037;-76
2023/06/06 06:00:29;;;;;;;10.52;9.52;;;;;;;16.94;100.00;99866.75;5053117;28;20025;-76
2023/06/06 06:02:56;;;;;;;11.80;9.70;;;;;;;17.11;100.00;99894.50;5052727;28;20025;-76
2023/06/06 06:05:27;;;;;;;10.13;9.13;;;;;;;17.10;100.00;99903.34;5052849;28;20078;-76
2023/06/06 06:07:54;;;;;;;11.32;9.88;;;;;;;17.00;100.00;99890.94;5051359;28;20044;-76
2023/06/06 06:10:20;;;;;;;12.02;10.68;;;;;;;17.15;100.00;99901.25;5052972;28;20029;-76
2023/06/06 06:12:45;;;;;;;12.07;10.52;;;;;;;17.08;100.00;99902.59;5052654;28;20461;-76
2023/06/06 06:15:11;;;;;;;10.52;9.52;;;;;;;17.18;100.00;99893.09;5052799;28;20032;-76
2023/06/06 06:17:36;;;;;;;10.90;9.57;;;;;;;17.34;100.00;99897.31;5052085;28;20506;-76
2023/06/06 06:20:08;;;;;;;10.93;9.82;;;;;;;17.36;100.00;99888.38;5052340;28;20435;-76
2023/06/06 06:22:34;;;;;;;10.80;9.27;;;;;;;17.30;100.00;99870.34;5052727;28;20057;-75
2023/06/06 06:25:00;;;;;;;10.38;9.38;;;;;;;17.41;98.68;99867.81;5052600;28;20029;-75
2023/06/06 06:27:25;;;;;;;9.98;8.98;;;;;;;17.53;98.21;99876.63;5052510;28;20039;-75
2023/06/06 06:29:50;;;;;;;9.52;8.63;;;;;;;17.71;97.55;99885.00;5052275;28;20055;-75
2023/06/06 06:32:17;;;;;;;10.45;9.45;;;;;;;17.61;97.63;99866.38;5052280;28;20113;-75
2023/06/06 06:34:43;;;;;;;10.90;9.80;;;;;;;17.80;96.22;99886.97;5052630;28;20120;-75
2023/06/06 06:37:08;;;;;;;10.95;9.27;;;;;;;17.80;95.36;99891.41;5052293;28;20524;-75
2023/06/06 06:39:34;;;;;;;11.10;9.35;;;;;;;17.88;95.04;99886.44;5052431;28;20073;-75
2023/06/06 06:41:59;;;;;;;11.07;9.38;;;;;;;17.92;95.05;99872.06;5052146;28;20036;-75
2023/06/06 06:44:25;;;;;;;10.82;9.80;;;;;;;18.14;93.67;99884.50;5052312;28;20029;-75
2023/06/06 06:46:50;;;;;;;9.88;8.63;;;;;;;18.20;93.07;99870.84;5051899;28;20029;-75
2023/06/06 06:49:15;;;;;;;10.30;9.13;;;;;;;18.24;92.62;99866.19;5052374;28;20028;-75
2023/06/06 06:51:41;;;;;;;9.20;8.30;;;;;;;18.48;92.29;99887.25;5052292;28;20025;-75
2023/06/06 06:54:10;;;;;;;9.10;8.20;;;;;;;18.47;91.31;99872.38;5051978;28;20036;-75
2023/06/06 06:56:36;;;;;;;8.88;7.97;;;;;;;18.61;90.23;99864.25;5052113;28;20021;-75
2023/06/06 06:59:03;;;;;;;8.40;7.60;;;;;;;18.95;89.58;99876.56;5051702;28;20476;-75
2023/06/06 07:01:29;;;;;;;8.15;7.32;;;;;;;19.28;88.74;99874.03;5052037;28;20459;-75
2023/06/06 07:03:54;;;;;;;9.23;8.32;;;;;;;19.54;87.33;99856.94;5052007;28;20107;-76
2023/06/06 07:06:20;;;;;;;8.90;7.65;;;;;;;19.80;85.21;99862.78;5052108;28;20036;-75
2023/06/06 07:08:45;;;;;;;9.38;7.50;;;;;;;20.28;84.14;99864.16;5051900;28;20116;-76
2023/06/06 07:11:11;;;;;;;8.75;7.85;;;;;;;20.55;82.50;99871.59;5051802;28;20469;-75
2023/06/06 07:13:36;;;;;;;9.05;6.63;;;;;;;20.92;80.98;99835.72;5051856;28;20031;-75
2023/06/06 07:16:02;;;;;;;9.23;7.50;;;;;;;21.61;77.70;99842.06;5051511;28;20021;-76
2023/06/06 07:18:28;;;;;;;7.97;7.00;;;;;;;22.24;74.12;99876.19;5051948;28;20029;-76
2023/06/06 07:20:53;;;;;;;8.18;7.10;;;;;;;22.59;72.86;99857.03;5051720;28;20476;-76
2023/06/06 07:23:18;;;;;;;8.05;6.38;;;;;;;23.50;70.88;99863.34;5051904;28;20025;-76
2023/06/06 07:25:44;;;;;;;6.90;6.20;;;;;;;24.14;69.05;99840.22;5051928;28;20452;-76
2023/06/06 07:28:13;;;;;;;6.57;5.97;;;;;;;25.13;67.42;99858.56;5052432;28;20033;-76
2023/06/06 07:30:38;;;;;;;7.43;6.72;;;;;;;25.85;63.47;99851.78;5055772;28;20491;-76
2023/06/06 07:33:04;;;;;;;7.10;6.50;;;;;;;26.00;61.84;99862.66;5055763;28;20045;-76
2023/06/06 07:35:32;;;;;;;6.85;5.65;;;;;;;26.18;61.12;99853.66;5056019;28;20023;-76
2023/06/06 07:38:02;;;;;;;6.13;5.57;;;;;;;26.42;59.43;99848.31;5055545;28;20032;-76
2023/06/06 07:40:28;;;;;;;6.28;5.60;;;;;;;26.10;58.52;99868.66;5055753;28;20031;-76
2023/06/06 07:42:54;;;;;;;6.25;5.65;;;;;;;25.68;60.44;99874.06;5055495;28;20100;-76
2023/06/06 07:45:20;;;;;;;6.30;5.72;;;;;;;25.44;60.40;99868.66;5055526;28;20114;-76
2023/06/06 07:47:45;;;;;;;10.73;6.38;;;;;;;25.19;60.76;99862.41;5055757;28;20037;-76
2023/06/06 07:50:11;;;;;;;6.50;5.90;;;;;;;24.81;62.36;99872.50;5055535;28;20057;-76
2023/06/06 07:52:43;;;;;;;6.22;5.68;;;;;;;24.46;62.73;99860.16;5055543;28;20040;-75
2023/06/06 07:55:09;;;;;;;8.60;6.20;;;;;;;23.98;63.30;99848.09;5055657;28;20051;-76
2023/06/06 07:57:34;;;;;;;7.82;6.60;;;;;;;23.56;64.08;99838.84;5055612;28;20028;-75
2023/06/06 07:59:59;;;;;;;9.10;6.13;;;;;;;23.62;65.83;99853.34;5055369;28;20021;-76
2023/06/06 08:02:25;;;;;;;7.38;6.68;;;;;;;23.30;67.08;99836.06;5055550;28;20029;-76
2023/06/06 08:04:51;;;;;;;7.45;6.60;;;;;;;23.15;65.87;99843.69;5055350;28;20040;-76
2023/06/06 08:07:17;;;;;;;7.63;6.93;;;;;;;22.95;66.07;99839.44;5055264;28;20114;-76
2023/06/06 08:09:43;;;;;;;10.30;7.53;;;;;;;22.90;67.41;99855.00;5055187;28;20071;-76
2023/06/06 08:12:09;;;;;;;7.55;6.85;;;;;;;22.96;68.66;99861.53;5054882;28;20029;-76
2023/06/06 08:14:35;;;;;;;7.85;6.97;;;;;;;22.84;68.78;99836.97;5055048;28;20029;-76
2023/06/06 08:17:02;;;;;;;8.77;7.90;;;;;;;22.74;69.08;99825.53;5055005;28;20559;-76
2023/06/06 08:19:28;;;;;;;10.23;8.18;;;;;;;22.96;68.85;99835.78;5055211;28;20021;-76
2023/06/06 08:21:53;;;;;;;11.13;7.85;;;;;;;22.90;68.86;99839.88;5055094;28;20036;-76
2023/06/06 08:24:19;;;;;;;8.45;7.65;;;;;;;22.78;69.07;99834.88;5054964;28;20024;-76
2023/06/06 08:26:45;;;;;;;9.25;7.25;;;;;;;22.75;68.67;99828.00;5054855;28;20063;-76
2023/06/06 08:29:10;;;;;;;10.70;8.70;;;;;;;22.82;67.52;99839.75;5054618;28;20028;-76
2023/06/06 08:31:35;;;;;;;10.77;8.18;;;;;;;22.89;67.70;99854.13;5054929;28;20032;-76
2023/06/06 08:34:01;;;;;;;8.48;7.20;;;;;;;22.96;67.84;99845.59;5054453;28;20052;-76
2023/06/06 08:36:26;;;;;;;9.07;8.25;;;;;;;22.91;66.81;99846.88;5055057;28;20036;-76
2023/06/06 08:38:52;;;;;;;11.38;7.95;;;;;;;22.97;66.50;99841.97;5045052;28;20091;-76
2023/06/06 08:41:18;;;;;;;8.48;7.53;;;;;;;23.07;66.16;99840.94;5041881;28;20037;-77
2023/06/06 08:43:46;;;;;;;10.63;8.23;;;;;;;23.01;66.36;99801.69;5042643;28;20032;-76
2023/06/06 08:46:13;;;;;;;11.48;7.55;;;;;;;23.26;65.99;99836.50;5034156;28;20473;-76
2023/06/06 08:48:40;;;;;;;10.55;7.82;;;;;;;23.20;65.00;99829.97;5034177;28;20461;-76
2023/06/06 08:51:08;;;;;;;9.40;6.82;;;;;;;23.28;65.16;99839.84;5043800;28;20036;-76
2023/06/06 08:53:33;;;;;;;7.90;7.10;;;;;;;23.30;65.44;99830.75;5042652;28;20079;-76
2023/06/06 08:56:00;;;;;;;7.32;6.45;;;;;;;23.37;65.90;99829.16;5042401;28;20469;-76
2023/06/06 08:58:29;;;;;;;7.38;6.65;;;;;;;23.52;65.05;99841.97;5044009;28;20483;-76
2023/06/06 09:00:58;;;;;;;10.13;6.72;;;;;;;23.54;62.95;99822.19;5043482;28;20466;-76
2023/06/06 09:03:24;;;;;;;8.93;6.50;;;;;;;23.54;63.13;99832.84;5042102;28;20029;-76
2023/06/06 09:05:51;;;;;;;7.45;6.47;;;;;;;23.61;62.35;99817.94;5043108;28;20021;-76
2023/06/06 09:08:19;;;;;;;8.00;6.70;;;;;;;23.76;61.86;99830.75;5043801;28;20034;-76
2023/06/06 09:10:44;;;;;;;7.80;6.22;;;;;;;23.88;62.29;99833.03;5041924;28;20469;-76
2023/06/06 09:13:09;;;;;;;8.57;6.50;;;;;;;23.95;61.59;99835.91;5042784;28;20096;-76
2023/06/06 09:15:35;;;;;;;7.80;6.63;;;;;;;23.84;61.06;99817.53;5043331;28;20101;-76
2023/06/06 09:18:00;;;;;;;11.60;6.68;;;;;;;23.93;61.84;99840.53;5052155;28;20397;-76
2023/06/06 09:20:25;;;;;;;9.52;7.13;;;;;;;24.11;61.46;99832.56;5053443;28;20028;-77
2023/06/06 09:22:52;;;;;;;8.93;6.32;;;;;;;24.13;60.38;99839.41;5054069;28;20101;-77
2023/06/06 09:25:19;;;;;;;7.78;6.03;;;;;;;24.31;60.77;99839.38;5053972;28;20039;-78
2023/06/06 09:27:45;;;;;;;7.45;6.00;;;;;;;24.16;58.64;99824.97;5054199;28;20044;-77
2023/06/06 09:30:21;;;;;;;8.80;6.60;;;;;;;24.22;58.45;99826.16;5054307;28;20025;-77
2023/06/06 09:32:51;;;;;;;7.05;6.28;;;;;;;24.36;58.62;99841.59;5054320;28;20036;-78
2023/06/06 09:35:16;;;;;;;8.23;6.18;;;;;;;24.32;58.54;99814.44;5053995;28;20017;-77
2023/06/06 09:37:42;;;;;;;8.25;6.10;;;;;;;24.38;59.05;99818.31;5053404;28;20032;-77
2023/06/06 09:40:18;;;;;;;6.72;5.18;;;;;;;24.49;57.14;99811.91;5053574;28;20602;-77
2023/06/06 09:42:48;;;;;;;6.93;5.68;;;;;;;24.62;57.19;99828.31;5053418;28;20388;-77
2023/06/06 09:45:18;;;;;;;6.57;5.82;;;;;;;24.43;57.55;99813.34;5053217;28;20017;-76
2023/06/06 09:47:48;;;;;;;6.30;5.70;;;;;;;24.50;58.21;99829.56;5053411;28;20033;-76
2023/06/06 09:50:16;;;;;;;7.40;5.70;;;;;;;24.48;57.32;99819.06;5052949;28;20032;-76
2023/06/06 09:52:42;;;;;;;5.35;4.75;;;;;;;24.52;54.68;99823.06;5052830;28;20036;-76
2023/06/06 09:55:08;;;;;;;5.00;4.50;;;;;;;24.48;54.97;99803.09;5053074;28;20074;-75
2023/06/06 09:57:39;;;;;;;7.22;5.20;;;;;;;24.55;55.12;99798.78;5052987;28;20033;-76
2023/06/06 10:00:24;;;;;;;5.47;4.38;;;;;;;24.79;52.14;99827.41;5053296;28;20017;-77
2023/06/06 10:02:49;;;;;;;8.10;4.50;;;;;;;24.62;51.91;99820.31;5053017;28;20036;-76
2023/06/06 10:05:15;;;;;;;5.25;4.68;;;;;;;24.60;52.97;99809.78;5052927;28;20107;-76
2023/06/06 10:07:45;;;;;;;5.32;4.45;;;;;;;24.70;52.96;99817.69;5053085;28;20095;-76
2023/06/06 10:10:17;;;;;;;6.25;4.82;;;;;;;24.56;53.41;99811.09;5052729;28;20035;-76
2023/06/06 10:12:43;;;;;;;6.60;5.00;;;;;;;24.55;53.48;99819.25;5052893;28;20388;-76
2023/06/06 10:15:10;;;;;;;6.15;5.28;;;;;;;24.41;53.00;99780.75;5051231;28;20393;-76
2023/06/06 10:17:38;;;;;;;5.00;4.60;;;;;;;24.43;52.84;99793.88;5052989;28;20457;-76
2023/06/06 10:20:09;;;;;;;8.50;6.32;;;;;;;24.72;53.85;99806.88;5052713;28;20078;-76
2023/06/06 10:22:39;;;;;;;6.95;5.57;;;;;;;24.77;52.11;99812.56;5052861;28;20025;-77
2023/06/06 10:25:16;;;;;;;5.60;4.30;;;;;;;24.53;50.84;99795.47;5052679;28;20025;-77
2023/06/06 10:27:50;;;;;;;8.13;4.43;;;;;;;24.71;51.67;99803.38;5052658;28;20033;-77
2023/06/06 10:30:27;;;;;;;6.93;4.60;;;;;;;24.59;51.97;99775.34;5052466;28;20111;-77
2023/06/06 10:33:05;;;;;;;6.13;4.60;;;;;;;24.84;52.50;99785.13;5052931;28;20072;-77
2023/06/06 10:35:32;;;;;;;4.68;4.18;;;;;;;24.92;50.72;99780.84;5052719;28;20555;-77
2023/06/06 10:38:09;;;;;;;6.00;4.53;;;;;;;24.89;51.06;99769.50;5052210;28;20025;-77
2023/06/06 10:40:54;;;;;;;5.53;4.25;;;;;;;24.91;51.19;99776.50;5052478;28;20025;-77
2023/06/06 10:43:32;;;;;;;6.93;4.38;;;;;;;25.17;50.64;99803.09;5052314;28;20048;-77
2023/06/06 10:45:58;;;;;;;5.75;4.00;;;;;;;25.26;48.75;99797.63;5052358;28;20032;-77
2023/06/06 10:48:36;;;;;;;4.57;4.05;;;;;;;25.29;49.27;99807.97;5052429;28;20025;-77
2023/06/06 10:51:01;;;;;;;5.60;4.22;;;;;;;25.29;49.59;99793.81;5052499;28;20025;-77
2023/06/06 10:53:26;;;;;;;4.63;4.20;;;;;;;25.24;48.68;99785.44;5052267;28;20032;-77
2023/06/06 10:55:52;;;;;;;5.32;4.15;;;;;;;25.06;49.80;99774.88;5052409;28;20488;-77
2023/06/06 10:58:28;;;;;;;5.40;3.78;;;;;;;25.11;49.38;99801.91;5052108;28;20507;-77
2023/06/06 11:00:58;;;;;;;4.93;3.60;;;;;;;24.93;48.99;99790.50;5052137;28;20036;-77
2023/06/06 11:03:38;;;;;;;6.53;4.10;;;;;;;24.97;48.55;99795.34;5052092;28;20488;-77
2023/06/06 11:06:07;;;;;;;5.10;4.10;;;;;;;24.99;48.77;99780.03;5051815;28;20017;-77
2023/06/06 11:08:41;;;;;;;6.70;4.00;;;;;;;25.30;48.43;99793.66;5052114;28;20170;-77
2023/06/06 11:11:23;;;;;;;6.47;4.20;;;;;;;25.35;47.67;99779.81;5051841;28;20108;-77
2023/06/06 11:13:53;;;;;;;4.35;3.95;;;;;;;25.35;48.73;99779.81;5052145;28;20025;-77
2023/06/06 11:16:40;;;;;;;5.18;3.90;;;;;;;25.47;47.53;99786.50;5051864;28;20029;-77
2023/06/06 11:19:19;;;;;;;5.53;3.80;;;;;;;25.64;47.60;99784.72;5051811;28;20043;-77
2023/06/06 11:22:00;;;;;;;7.90;3.95;;;;;;;25.64;47.03;99779.38;5051809;28;20036;-77
2023/06/06 11:24:32;;;;;;;4.90;4.00;;;;;;;25.52;48.02;99759.34;5052091;28;20025;-77
2023/06/06 11:26:58;;;;;;;5.15;4.05;;;;;;;25.55;47.46;99775.03;5051900;28;20021;-77
2023/06/06 11:29:26;;;;;;;5.05;3.85;;;;;;;25.57;46.56;99773.03;5051813;28;20059;-76